createdAt,value
2018-12-25T00:02:04.500Z,0.90
2018-12-25T00:07:16.445Z,0.60
2018-12-25T00:12:22.660Z,0.60
2018-12-25T00:17:25.500Z,0.60
2018-12-25T00:22:32.488Z,0.60
2018-12-25T00:27:39.337Z,0.67
2018-12-25T00:38:24.983Z,0.60
2018-12-25T00:43:33.487Z,0.70
2018-12-25T00:48:37.081Z,0.70
2018-12-25T00:53:42.847Z,0.70
2018-12-25T00:58:46.689Z,0.70
2018-12-25T01:03:53.503Z,0.63
2018-12-25T01:08:57.024Z,0.60
2018-12-25T01:14:01.493Z,0.60
2018-12-25T01:19:04.194Z,0.80
2018-12-25T01:24:07.502Z,0.70
2018-12-25T01:29:11.375Z,0.70
2018-12-25T01:34:17.987Z,1.20
2018-12-25T01:39:21.447Z,2.60
2018-12-25T01:44:24.303Z,0.97
2018-12-25T01:49:31.698Z,0.70
2018-12-25T01:54:31.586Z,0.60
2018-12-25T01:59:34.473Z,0.80
2018-12-25T02:04:55.622Z,0.70
2018-12-25T02:10:01.575Z,0.60
2018-12-25T02:15:05.063Z,0.83
2018-12-25T02:20:08.507Z,0.73
2018-12-25T02:25:21.142Z,0.80
2018-12-25T02:30:24.276Z,0.93
2018-12-25T02:35:28.972Z,1.47
2018-12-25T02:40:32.512Z,1.17
2018-12-25T02:45:44.500Z,1.70
2018-12-25T02:50:47.200Z,3.80
2018-12-25T02:55:49.949Z,3.97
2018-12-25T03:00:53.845Z,6.17
2018-12-25T03:05:57.647Z,2.47
2018-12-25T03:11:00.620Z,4.43
2018-12-25T03:16:05.291Z,7.00
2018-12-25T03:21:09.019Z,2.60
2018-12-25T03:26:30.076Z,3.83
2018-12-25T03:31:33.581Z,5.70
2018-12-25T03:36:36.354Z,6.03
2018-12-25T03:41:39.379Z,5.23
2018-12-25T03:46:52.012Z,3.50
2018-12-25T03:51:54.797Z,7.33
2018-12-25T03:56:57.648Z,4.57
2018-12-25T04:02:01.075Z,6.67
2018-12-25T04:07:06.901Z,3.20
2018-12-25T04:12:10.580Z,4.97
2018-12-25T04:17:13.253Z,3.73
2018-12-25T04:22:16.430Z,3.10
2018-12-25T04:27:21.056Z,3.33
2018-12-25T04:32:24.541Z,2.33
2018-12-25T04:37:27.455Z,5.00
2018-12-25T04:42:30.161Z,4.23
2018-12-25T04:47:41.935Z,2.20
2018-12-25T04:52:45.716Z,2.43
2018-12-25T04:57:49.383Z,5.23
2018-12-25T05:02:52.599Z,7.40
2018-12-25T05:07:55.433Z,4.97
2018-12-25T05:12:58.199Z,4.63
2018-12-25T05:18:02.788Z,5.43
2018-12-25T05:23:06.971Z,3.27
2018-12-25T05:28:09.663Z,5.73
2018-12-25T05:33:12.487Z,4.87
2018-12-25T05:38:18.240Z,8.63
2018-12-25T05:43:21.072Z,8.27
2018-12-25T05:48:24.703Z,17.83
2018-12-25T05:53:29.624Z,12.27
2018-12-25T05:58:32.291Z,20.87
2018-12-25T06:03:35.528Z,14.97
2018-12-25T06:08:39.162Z,8.17
2018-12-25T06:13:42.655Z,14.30
2018-12-25T06:18:46.352Z,8.47
2018-12-25T06:23:49.294Z,24.20
2018-12-25T06:28:52.991Z,11.60
2018-12-25T06:33:56.612Z,11.77
2018-12-25T06:39:00.189Z,27.93
2018-12-25T06:44:03.727Z,18.27
2018-12-25T06:49:07.176Z,23.43
2018-12-25T06:54:10.100Z,21.67
2018-12-25T06:59:13.668Z,17.00
2018-12-25T07:04:17.226Z,14.30
2018-12-25T07:09:22.947Z,23.57
2018-12-25T07:14:30.968Z,23.43
2018-12-25T07:19:34.175Z,37.37
2018-12-25T07:24:37.362Z,28.17
2018-12-25T07:29:43.245Z,23.23
2018-12-25T07:34:47.468Z,35.57
2018-12-25T07:39:50.813Z,23.17
2018-12-25T07:44:58.514Z,27.20
2018-12-25T07:50:05.559Z,20.93
2018-12-25T07:55:10.172Z,23.90
2018-12-25T08:00:22.308Z,32.33
2018-12-25T08:05:34.727Z,22.97
2018-12-25T08:10:38.306Z,14.97
2018-12-25T08:15:43.120Z,25.80
2018-12-25T08:21:03.838Z,14.87
2018-12-25T08:26:06.675Z,9.23
2018-12-25T08:31:12.697Z,30.10
2018-12-25T08:36:16.407Z,26.10
2018-12-25T08:41:37.759Z,33.50
2018-12-25T08:46:41.242Z,17.90
2018-12-25T08:51:44.185Z,25.47
2018-12-25T08:56:48.106Z,13.83
2018-12-25T09:01:52.824Z,26.20
2018-12-25T09:06:56.243Z,16.37
2018-12-25T09:11:59.051Z,16.67
2018-12-25T09:17:05.687Z,24.47
2018-12-25T09:22:09.184Z,14.37
2018-12-25T09:27:12.804Z,14.80
2018-12-25T09:32:16.061Z,14.90
2018-12-25T09:37:20.776Z,23.13
2018-12-25T09:42:24.344Z,13.83
2018-12-25T09:47:32.405Z,17.53
2018-12-25T09:52:35.212Z,9.90
2018-12-25T09:57:42.059Z,23.33
2018-12-25T10:02:45.219Z,21.67
2018-12-25T10:07:52.720Z,21.53
2018-12-25T10:12:56.286Z,17.63
2018-12-25T10:18:02.417Z,6.40
2018-12-25T10:23:06.044Z,17.40
2018-12-25T10:28:08.870Z,13.00
2018-12-25T10:33:12.259Z,13.57
2018-12-25T10:38:15.844Z,8.93
2018-12-25T10:43:19.143Z,23.20
2018-12-25T10:48:40.571Z,23.13
2018-12-25T10:53:51.522Z,28.07
2018-12-25T10:58:55.420Z,15.63
2018-12-25T11:03:58.293Z,16.33
2018-12-25T11:09:08.263Z,31.97
2018-12-25T11:14:11.576Z,28.80
2018-12-25T11:19:15.416Z,19.47
2018-12-25T11:24:24.417Z,21.27
2018-12-25T11:29:28.447Z,22.33
2018-12-25T11:34:31.740Z,10.27
2018-12-25T11:39:37.558Z,20.47
2018-12-25T11:44:43.369Z,23.03
2018-12-25T11:49:46.516Z,18.90
2018-12-25T11:54:50.416Z,25.07
2018-12-25T11:59:58.018Z,12.17
2018-12-25T12:05:04.445Z,16.93
2018-12-25T12:10:08.173Z,14.10
2018-12-25T12:15:11.795Z,23.23
2018-12-25T12:20:18.392Z,14.03
2018-12-25T12:25:21.792Z,16.43
2018-12-25T12:30:24.852Z,23.13
2018-12-25T12:35:31.328Z,12.70
2018-12-25T12:40:34.135Z,14.20
2018-12-25T12:45:41.810Z,8.57
2018-12-25T12:50:53.650Z,12.87
2018-12-25T12:55:57.374Z,16.47
2018-12-25T13:01:00.195Z,14.97
2018-12-25T13:06:03.051Z,15.17
2018-12-25T13:11:07.928Z,14.90
2018-12-25T13:16:11.397Z,10.57
2018-12-25T13:21:18.330Z,15.20
2018-12-25T13:26:24.275Z,18.43
2018-12-25T13:31:27.205Z,27.90
2018-12-25T13:36:30.189Z,15.20
2018-12-25T13:41:33.178Z,9.03
2018-12-25T13:46:37.369Z,9.97
2018-12-25T13:51:41.285Z,18.07
2018-12-25T13:56:49.209Z,17.23
2018-12-25T14:01:53.324Z,8.60
2018-12-25T14:07:00.303Z,2.73
2018-12-25T14:12:07.544Z,3.93
2018-12-25T14:17:14.026Z,9.93
2018-12-25T14:22:36.193Z,9.03
2018-12-25T14:27:39.305Z,11.57
2018-12-25T14:32:43.212Z,7.97
2018-12-25T14:37:47.291Z,9.77
2018-12-25T14:42:54.501Z,10.70
2018-12-25T14:48:01.688Z,15.73
2018-12-25T14:53:08.587Z,3.13
2018-12-25T14:58:11.532Z,15.73
2018-12-25T15:03:14.536Z,5.90
2018-12-25T15:08:17.632Z,5.87
2018-12-25T15:13:25.872Z,7.83
2018-12-25T15:18:30.181Z,11.60
2018-12-25T15:23:42.410Z,12.33
2018-12-25T15:28:46.225Z,8.10
2018-12-25T15:33:50.997Z,11.80
2018-12-25T15:38:54.932Z,8.00
2018-12-25T15:43:58.909Z,15.03
2018-12-25T15:49:06.749Z,7.93
2018-12-25T15:54:19.791Z,12.60
2018-12-25T15:59:23.238Z,13.77
2018-12-25T16:04:27.874Z,8.30
2018-12-25T16:09:32.603Z,17.20
2018-12-25T16:14:36.989Z,12.10
2018-12-25T16:19:44.090Z,13.80
2018-12-25T16:24:50.856Z,9.10
2018-12-25T16:29:54.661Z,18.17
2018-12-25T16:35:07.002Z,20.33
2018-12-25T16:40:13.328Z,10.00
2018-12-25T16:45:19.512Z,12.43
2018-12-25T16:50:27.897Z,12.57
2018-12-25T16:55:33.652Z,14.97
2018-12-25T17:00:37.772Z,15.77
2018-12-25T17:05:44.892Z,19.97
2018-12-25T17:10:58.467Z,17.30
2018-12-25T17:16:02.382Z,14.73
2018-12-25T17:21:05.179Z,14.20
2018-12-25T17:26:08.998Z,14.17
2018-12-25T17:31:13.509Z,13.13
2018-12-25T17:36:21.168Z,12.77
2018-12-25T17:41:24.383Z,15.37
2018-12-25T17:46:27.496Z,15.90
2018-12-25T17:51:30.301Z,13.40
2018-12-25T17:56:37.684Z,17.13
2018-12-25T18:01:39.933Z,17.37
2018-12-25T18:06:44.602Z,25.43
2018-12-25T18:11:50.743Z,18.10
2018-12-25T18:16:53.560Z,17.73
2018-12-25T18:21:56.460Z,26.53
2018-12-25T18:26:59.505Z,24.53
2018-12-25T18:32:05.604Z,21.30
2018-12-25T18:37:12.515Z,15.80
2018-12-25T18:42:23.206Z,23.80
2018-12-25T18:47:22.639Z,20.10
2018-12-25T18:52:26.109Z,17.83
2018-12-25T18:57:32.687Z,16.53
2018-12-25T19:02:36.016Z,25.60
2018-12-25T19:07:57.491Z,18.73
2018-12-25T19:13:10.060Z,21.37
2018-12-25T19:18:31.054Z,18.43
2018-12-25T19:23:46.880Z,23.17
2018-12-25T19:28:52.816Z,22.80
2018-12-25T19:33:58.641Z,26.07
2018-12-25T19:39:01.619Z,23.27
2018-12-25T19:44:06.112Z,25.13
2018-12-25T19:49:18.199Z,26.13
2018-12-25T19:54:21.563Z,21.23
2018-12-25T19:59:25.077Z,20.37
2018-12-25T20:04:36.786Z,22.73
2018-12-25T20:10:07.849Z,23.03
2018-12-25T20:15:44.171Z,25.70
2018-12-25T20:21:37.491Z,20.43
2018-12-25T20:27:11.759Z,19.10
2018-12-25T20:33:15.499Z,19.30
2018-12-25T20:39:11.127Z,16.77
2018-12-25T20:44:49.489Z,20.67
2018-12-25T20:50:49.191Z,20.63
2018-12-25T20:56:49.397Z,18.60
2018-12-25T21:02:52.159Z,29.23
2018-12-25T21:08:36.618Z,27.47
2018-12-25T21:14:32.738Z,24.57
2018-12-25T21:20:26.535Z,26.67
2018-12-25T21:26:24.354Z,26.80
2018-12-25T21:31:32.357Z,38.53
2018-12-25T21:36:37.924Z,33.00
2018-12-25T21:41:42.493Z,30.43
2018-12-25T21:46:48.066Z,35.33
2018-12-25T21:51:53.878Z,37.40
2018-12-25T21:56:57.207Z,22.30
2018-12-25T22:02:02.325Z,25.13
2018-12-25T22:07:05.400Z,24.90
2018-12-25T22:12:19.571Z,19.83
2018-12-25T22:17:25.900Z,19.73
2018-12-25T22:22:32.856Z,22.13
2018-12-25T22:27:38.125Z,25.07
2018-12-25T22:32:46.034Z,21.37
2018-12-25T22:37:50.203Z,30.50
2018-12-25T22:42:55.899Z,32.63
2018-12-25T22:48:00.744Z,25.33
2018-12-25T22:53:06.972Z,31.30
2018-12-25T22:58:12.807Z,20.53
2018-12-25T23:03:27.532Z,25.77
2018-12-25T23:08:32.737Z,19.53
2018-12-25T23:13:39.524Z,20.33
2018-12-25T23:18:42.598Z,22.53
2018-12-25T23:23:49.275Z,26.70
2018-12-25T23:28:52.356Z,21.77
2018-12-25T23:33:56.153Z,25.37
2018-12-25T23:38:59.042Z,21.03
2018-12-25T23:44:05.052Z,47.10
2018-12-25T23:49:08.703Z,38.27
2018-12-25T23:54:29.653Z,50.37
2018-12-25T23:59:42.954Z,41.47
